sensor_id;sensor_type;location;lat;lon;timestamp;pressure;altitude;pressure_sealevel;temperature;humidity
58668;BME280;59852;43.086;25.634;2022-12-18T00:00:55;99667.94;;;8.44;76.90
58668;BME280;59852;43.086;25.634;2022-12-18T00:03:20;99671.34;;;8.46;78.03
58668;BME280;59852;43.086;25.634;2022-12-18T00:05:47;99679.88;;;8.50;77.68
58668;BME280;59852;43.086;25.634;2022-12-18T00:08:12;99683.38;;;8.49;77.94
58668;BME280;59852;43.086;25.634;2022-12-18T00:10:38;99688.44;;;8.52;77.45
58668;BME280;59852;43.086;25.634;2022-12-18T00:13:03;99689.44;;;8.49;76.88
58668;BME280;59852;43.086;25.634;2022-12-18T00:15:28;99688.59;;;8.49;77.11
58668;BME280;59852;43.086;25.634;2022-12-18T00:17:54;99696.50;;;8.28;77.86
58668;BME280;59852;43.086;25.634;2022-12-18T00:20:19;99698.69;;;8.38;78.16
58668;BME280;59852;43.086;25.634;2022-12-18T00:22:50;99694.50;;;8.33;78.01
58668;BME280;59852;43.086;25.634;2022-12-18T00:25:16;99699.31;;;8.43;77.96
58668;BME280;59852;43.086;25.634;2022-12-18T00:27:41;99701.31;;;8.38;78.45
58668;BME280;59852;43.086;25.634;2022-12-18T00:30:06;99710.03;;;8.37;79.04
58668;BME280;59852;43.086;25.634;2022-12-18T00:32:32;99708.59;;;8.29;79.27
58668;BME280;59852;43.086;25.634;2022-12-18T00:34:57;99714.00;;;8.25;80.82
58668;BME280;59852;43.086;25.634;2022-12-18T00:37:23;99723.41;;;8.29;79.66
58668;BME280;59852;43.086;25.634;2022-12-18T00:39:48;99722.31;;;8.33;78.96
58668;BME280;59852;43.086;25.634;2022-12-18T00:42:14;99729.19;;;8.36;78.18
58668;BME280;59852;43.086;25.634;2022-12-18T00:44:58;99729.38;;;8.31;78.81
58668;BME280;59852;43.086;25.634;2022-12-18T00:47:23;99719.78;;;8.31;78.34
58668;BME280;59852;43.086;25.634;2022-12-18T00:49:48;99723.25;;;8.32;78.12
58668;BME280;59852;43.086;25.634;2022-12-18T00:52:14;99726.19;;;8.24;79.02
58668;BME280;59852;43.086;25.634;2022-12-18T00:54:39;99731.13;;;8.30;77.94
58668;BME280;59852;43.086;25.634;2022-12-18T00:57:04;99727.63;;;8.31;77.94
58668;BME280;59852;43.086;25.634;2022-12-18T00:59:30;99725.94;;;8.30;77.67
58668;BME280;59852;43.086;25.634;2022-12-18T01:01:55;99735.50;;;8.30;77.56
58668;BME280;59852;43.086;25.634;2022-12-18T01:04:20;99730.28;;;8.30;76.02
58668;BME280;59852;43.086;25.634;2022-12-18T01:06:46;99738.19;;;8.28;76.69
58668;BME280;59852;43.086;25.634;2022-12-18T01:09:12;99736.50;;;8.27;76.98
58668;BME280;59852;43.086;25.634;2022-12-18T01:11:37;99738.88;;;8.32;76.00
58668;BME280;59852;43.086;25.634;2022-12-18T01:14:03;99742.25;;;8.34;76.23
58668;BME280;59852;43.086;25.634;2022-12-18T01:16:29;99741.78;;;8.26;77.08
58668;BME280;59852;43.086;25.634;2022-12-18T01:18:54;99746.69;;;8.32;76.50
58668;BME280;59852;43.086;25.634;2022-12-18T01:21:20;99743.31;;;8.30;76.91
58668;BME280;59852;43.086;25.634;2022-12-18T01:23:45;99746.09;;;8.27;76.68
58668;BME280;59852;43.086;25.634;2022-12-18T01:26:12;99745.94;;;8.30;76.47
58668;BME280;59852;43.086;25.634;2022-12-18T01:28:38;99752.84;;;8.31;76.54
58668;BME280;59852;43.086;25.634;2022-12-18T01:31:14;99759.97;;;8.27;76.58
58668;BME280;59852;43.086;25.634;2022-12-18T01:33:39;99756.44;;;8.28;76.94
58668;BME280;59852;43.086;25.634;2022-12-18T01:36:05;99763.06;;;8.17;77.20
58668;BME280;59852;43.086;25.634;2022-12-18T01:38:30;99767.19;;;8.21;77.04
58668;BME280;59852;43.086;25.634;2022-12-18T01:40:59;99762.00;;;8.21;78.10
58668;BME280;59852;43.086;25.634;2022-12-18T01:43:41;99759.72;;;8.13;78.23
58668;BME280;59852;43.086;25.634;2022-12-18T01:46:06;99767.63;;;8.12;78.55
58668;BME280;59852;43.086;25.634;2022-12-18T01:48:32;99763.16;;;8.14;77.65
58668;BME280;59852;43.086;25.634;2022-12-18T01:50:57;99765.59;;;8.18;77.38
58668;BME280;59852;43.086;25.634;2022-12-18T01:53:22;99766.22;;;8.23;78.31
58668;BME280;59852;43.086;25.634;2022-12-18T01:55:52;99770.66;;;8.21;78.46
58668;BME280;59852;43.086;25.634;2022-12-18T01:58:18;99766.09;;;8.26;78.35
58668;BME280;59852;43.086;25.634;2022-12-18T02:00:44;99776.72;;;8.22;79.31
58668;BME280;59852;43.086;25.634;2022-12-18T02:03:10;99774.94;;;8.22;78.19
58668;BME280;59852;43.086;25.634;2022-12-18T02:05:46;99771.34;;;8.25;77.91
58668;BME280;59852;43.086;25.634;2022-12-18T02:08:19;99769.88;;;8.19;76.91
58668;BME280;59852;43.086;25.634;2022-12-18T02:15:42;99774.44;;;8.14;76.96
58668;BME280;59852;43.086;25.634;2022-12-18T02:18:10;99771.75;;;8.16;77.51
58668;BME280;59852;43.086;25.634;2022-12-18T02:20:59;99776.94;;;8.17;77.50
58668;BME280;59852;43.086;25.634;2022-12-18T02:26:10;99782.25;;;8.14;77.07
58668;BME280;59852;43.086;25.634;2022-12-18T02:28:40;99780.97;;;8.04;76.98
58668;BME280;59852;43.086;25.634;2022-12-18T02:31:07;99790.44;;;8.07;76.89
58668;BME280;59852;43.086;25.634;2022-12-18T02:33:34;99791.53;;;8.01;76.59
58668;BME280;59852;43.086;25.634;2022-12-18T02:36:01;99801.31;;;7.96;77.13
58668;BME280;59852;43.086;25.634;2022-12-18T02:38:27;99802.44;;;7.70;76.91
58668;BME280;59852;43.086;25.634;2022-12-18T02:40:54;99799.91;;;7.48;77.08
58668;BME280;59852;43.086;25.634;2022-12-18T02:43:20;99799.09;;;7.46;76.92
58668;BME280;59852;43.086;25.634;2022-12-18T02:45:57;99804.69;;;7.37;76.92
58668;BME280;59852;43.086;25.634;2022-12-18T02:48:30;99801.06;;;7.41;76.54
58668;BME280;59852;43.086;25.634;2022-12-18T02:51:14;99808.41;;;7.31;76.74
58668;BME280;59852;43.086;25.634;2022-12-18T02:53:44;99814.25;;;7.36;76.66
58668;BME280;59852;43.086;25.634;2022-12-18T02:56:20;99809.81;;;7.18;76.42
58668;BME280;59852;43.086;25.634;2022-12-18T03:03:55;99821.59;;;7.27;76.57
58668;BME280;59852;43.086;25.634;2022-12-18T03:06:29;99834.56;;;7.28;76.69
58668;BME280;59852;43.086;25.634;2022-12-18T03:09:01;99836.78;;;7.15;76.82
58668;BME280;59852;43.086;25.634;2022-12-18T03:11:28;99838.81;;;7.09;77.43
58668;BME280;59852;43.086;25.634;2022-12-18T03:14:15;99845.63;;;7.11;76.57
58668;BME280;59852;43.086;25.634;2022-12-18T03:16:42;99856.53;;;7.21;76.42
58668;BME280;59852;43.086;25.634;2022-12-18T03:19:14;99860.50;;;7.08;76.53
58668;BME280;59852;43.086;25.634;2022-12-18T03:21:51;99865.53;;;7.12;77.29
58668;BME280;59852;43.086;25.634;2022-12-18T03:24:18;99863.78;;;7.13;76.93
58668;BME280;59852;43.086;25.634;2022-12-18T03:26:46;99868.50;;;7.03;77.15
58668;BME280;59852;43.086;25.634;2022-12-18T03:29:13;99876.50;;;6.99;77.72
58668;BME280;59852;43.086;25.634;2022-12-18T03:31:42;99881.28;;;7.09;76.87
58668;BME280;59852;43.086;25.634;2022-12-18T03:34:14;99881.63;;;7.00;77.15
58668;BME280;59852;43.086;25.634;2022-12-18T03:36:40;99882.41;;;7.02;76.95
58668;BME280;59852;43.086;25.634;2022-12-18T03:39:05;99888.94;;;6.90;77.82
58668;BME280;59852;43.086;25.634;2022-12-18T03:41:44;99885.50;;;6.90;77.30
58668;BME280;59852;43.086;25.634;2022-12-18T03:44:21;99885.13;;;6.99;76.65
58668;BME280;59852;43.086;25.634;2022-12-18T03:46:54;99888.75;;;6.95;76.83
58668;BME280;59852;43.086;25.634;2022-12-18T03:50:08;99894.78;;;6.96;76.89
58668;BME280;59852;43.086;25.634;2022-12-18T03:55:07;99907.38;;;6.61;77.27
58668;BME280;59852;43.086;25.634;2022-12-18T03:57:34;99902.84;;;6.66;77.94
58668;BME280;59852;43.086;25.634;2022-12-18T04:00:03;99905.69;;;6.60;77.42
58668;BME280;59852;43.086;25.634;2022-12-18T04:02:29;99904.88;;;6.58;77.06
58668;BME280;59852;43.086;25.634;2022-12-18T04:04:57;99916.41;;;6.74;77.22
58668;BME280;59852;43.086;25.634;2022-12-18T04:07:24;99915.97;;;6.63;77.85
58668;BME280;59852;43.086;25.634;2022-12-18T04:09:49;99930.25;;;6.75;75.89
58668;BME280;59852;43.086;25.634;2022-12-18T04:12:16;99935.72;;;6.67;76.86
58668;BME280;59852;43.086;25.634;2022-12-18T04:14:41;99934.28;;;6.60;76.04
58668;BME280;59852;43.086;25.634;2022-12-18T04:17:06;99944.09;;;6.75;76.29
58668;BME280;59852;43.086;25.634;2022-12-18T04:19:32;99950.41;;;6.68;76.04
58668;BME280;59852;43.086;25.634;2022-12-18T04:21:57;99945.22;;;6.68;76.34
58668;BME280;59852;43.086;25.634;2022-12-18T04:24:22;99945.56;;;6.59;77.13
58668;BME280;59852;43.086;25.634;2022-12-18T04:26:48;99955.41;;;6.74;76.33
58668;BME280;59852;43.086;25.634;2022-12-18T04:29:13;99956.50;;;6.44;77.07
58668;BME280;59852;43.086;25.634;2022-12-18T04:31:38;99962.59;;;6.43;76.17
58668;BME280;59852;43.086;25.634;2022-12-18T04:34:04;99969.06;;;6.56;75.90
58668;BME280;59852;43.086;25.634;2022-12-18T04:36:29;99971.78;;;6.53;76.85
58668;BME280;59852;43.086;25.634;2022-12-18T04:38:54;99971.91;;;6.50;77.15
58668;BME280;59852;43.086;25.634;2022-12-18T04:41:20;99981.09;;;6.58;77.08
58668;BME280;59852;43.086;25.634;2022-12-18T04:43:45;99977.13;;;6.73;76.82
58668;BME280;59852;43.086;25.634;2022-12-18T04:46:11;99985.03;;;6.70;76.38
58668;BME280;59852;43.086;25.634;2022-12-18T04:48:36;99989.38;;;6.70;76.40
58668;BME280;59852;43.086;25.634;2022-12-18T04:51:02;99988.47;;;6.71;75.90
58668;BME280;59852;43.086;25.634;2022-12-18T04:53:28;99990.63;;;6.59;76.46
58668;BME280;59852;43.086;25.634;2022-12-18T04:56:06;99990.44;;;6.64;76.89
58668;BME280;59852;43.086;25.634;2022-12-18T04:58:33;100000.91;;;6.63;77.57
58668;BME280;59852;43.086;25.634;2022-12-18T05:00:58;100003.63;;;6.58;77.02
58668;BME280;59852;43.086;25.634;2022-12-18T05:03:23;100014.03;;;6.58;77.13
58668;BME280;59852;43.086;25.634;2022-12-18T05:05:49;100021.84;;;6.58;77.75
58668;BME280;59852;43.086;25.634;2022-12-18T05:08:14;100020.84;;;6.62;77.98
58668;BME280;59852;43.086;25.634;2022-12-18T05:10:40;100020.63;;;6.68;78.05
58668;BME280;59852;43.086;25.634;2022-12-18T05:13:05;100027.41;;;6.72;77.41
58668;BME280;59852;43.086;25.634;2022-12-18T05:15:31;100027.81;;;6.35;78.19
58668;BME280;59852;43.086;25.634;2022-12-18T05:17:57;100036.09;;;6.46;78.94
58668;BME280;59852;43.086;25.634;2022-12-18T05:20:23;100040.22;;;6.53;77.80
58668;BME280;59852;43.086;25.634;2022-12-18T05:22:48;100054.16;;;6.51;78.03
58668;BME280;59852;43.086;25.634;2022-12-18T05:25:14;100051.28;;;6.58;78.49
58668;BME280;59852;43.086;25.634;2022-12-18T05:27:40;100052.09;;;6.60;78.46
58668;BME280;59852;43.086;25.634;2022-12-18T05:30:05;100060.94;;;6.55;77.70
58668;BME280;59852;43.086;25.634;2022-12-18T05:32:31;100058.59;;;6.47;77.99
58668;BME280;59852;43.086;25.634;2022-12-18T05:34:56;100055.84;;;6.52;77.85
58668;BME280;59852;43.086;25.634;2022-12-18T05:37:22;100057.91;;;6.42;77.60
58668;BME280;59852;43.086;25.634;2022-12-18T05:39:47;100070.66;;;6.50;78.04
58668;BME280;59852;43.086;25.634;2022-12-18T05:42:13;100066.44;;;6.46;78.03
58668;BME280;59852;43.086;25.634;2022-12-18T05:44:38;100077.63;;;6.48;76.52
58668;BME280;59852;43.086;25.634;2022-12-18T05:47:03;100070.34;;;6.06;78.34
58668;BME280;59852;43.086;25.634;2022-12-18T05:49:29;100080.25;;;6.21;77.73
58668;BME280;59852;43.086;25.634;2022-12-18T05:51:54;100073.56;;;6.14;77.81
58668;BME280;59852;43.086;25.634;2022-12-18T05:54:19;100077.50;;;6.26;78.20
58668;BME280;59852;43.086;25.634;2022-12-18T05:56:45;100081.44;;;6.38;77.11
58668;BME280;59852;43.086;25.634;2022-12-18T05:59:10;100091.34;;;6.26;76.16
58668;BME280;59852;43.086;25.634;2022-12-18T06:01:35;100090.91;;;6.40;75.70
58668;BME280;59852;43.086;25.634;2022-12-18T06:04:01;100105.25;;;6.52;76.18
58668;BME280;59852;43.086;25.634;2022-12-18T06:06:27;100095.63;;;6.01;76.07
58668;BME280;59852;43.086;25.634;2022-12-18T06:08:53;100098.78;;;6.37;74.22
58668;BME280;59852;43.086;25.634;2022-12-18T06:11:21;100101.94;;;6.20;73.82
58668;BME280;59852;43.086;25.634;2022-12-18T06:13:46;100118.13;;;6.55;72.98
58668;BME280;59852;43.086;25.634;2022-12-18T06:16:14;100119.94;;;6.53;72.44
58668;BME280;59852;43.086;25.634;2022-12-18T06:18:39;100127.78;;;6.51;72.65
58668;BME280;59852;43.086;25.634;2022-12-18T06:21:05;100131.97;;;6.55;72.87
58668;BME280;59852;43.086;25.634;2022-12-18T06:23:30;100137.41;;;6.48;71.66
58668;BME280;59852;43.086;25.634;2022-12-18T06:25:55;100143.47;;;6.22;73.71
58668;BME280;59852;43.086;25.634;2022-12-18T06:28:21;100150.38;;;6.49;73.66
58668;BME280;59852;43.086;25.634;2022-12-18T06:30:46;100151.25;;;6.22;72.91
58668;BME280;59852;43.086;25.634;2022-12-18T06:33:13;100163.81;;;6.36;73.95
58668;BME280;59852;43.086;25.634;2022-12-18T06:35:38;100174.25;;;6.34;73.58
58668;BME280;59852;43.086;25.634;2022-12-18T06:38:04;100170.41;;;6.46;74.02
58668;BME280;59852;43.086;25.634;2022-12-18T06:40:29;100173.53;;;6.29;74.84
58668;BME280;59852;43.086;25.634;2022-12-18T06:42:55;100187.78;;;5.86;75.62
58668;BME280;59852;43.086;25.634;2022-12-18T06:45:20;100179.38;;;6.08;75.43
58668;BME280;59852;43.086;25.634;2022-12-18T06:47:45;100191.88;;;5.95;74.46
58668;BME280;59852;43.086;25.634;2022-12-18T06:50:11;100181.59;;;6.21;74.59
58668;BME280;59852;43.086;25.634;2022-12-18T06:52:37;100195.88;;;6.07;71.43
58668;BME280;59852;43.086;25.634;2022-12-18T06:55:02;100183.34;;;6.19;72.67
58668;BME280;59852;43.086;25.634;2022-12-18T06:57:28;100192.09;;;6.17;70.13
58668;BME280;59852;43.086;25.634;2022-12-18T06:59:53;100194.97;;;6.36;70.28
58668;BME280;59852;43.086;25.634;2022-12-18T07:02:19;100190.41;;;6.44;70.91
58668;BME280;59852;43.086;25.634;2022-12-18T07:04:44;100200.94;;;6.11;71.10
58668;BME280;59852;43.086;25.634;2022-12-18T07:07:10;100198.47;;;6.35;71.25
58668;BME280;59852;43.086;25.634;2022-12-18T07:09:35;100201.69;;;6.43;71.09
58668;BME280;59852;43.086;25.634;2022-12-18T07:12:00;100213.06;;;6.39;69.44
58668;BME280;59852;43.086;25.634;2022-12-18T07:14:26;100215.34;;;6.21;69.86
58668;BME280;59852;43.086;25.634;2022-12-18T07:16:51;100214.06;;;6.35;70.41
58668;BME280;59852;43.086;25.634;2022-12-18T07:19:16;100212.94;;;6.43;70.28
58668;BME280;59852;43.086;25.634;2022-12-18T07:21:42;100221.75;;;6.38;69.93
58668;BME280;59852;43.086;25.634;2022-12-18T07:24:07;100218.00;;;6.48;70.27
58668;BME280;59852;43.086;25.634;2022-12-18T07:26:32;100235.50;;;6.43;70.18
58668;BME280;59852;43.086;25.634;2022-12-18T07:28:58;100228.41;;;6.20;68.92
58668;BME280;59852;43.086;25.634;2022-12-18T07:31:24;100231.53;;;6.31;67.21
58668;BME280;59852;43.086;25.634;2022-12-18T07:33:50;100235.53;;;6.41;68.40
58668;BME280;59852;43.086;25.634;2022-12-18T07:36:15;100224.75;;;6.53;69.77
58668;BME280;59852;43.086;25.634;2022-12-18T07:38:41;100229.78;;;6.58;70.33
58668;BME280;59852;43.086;25.634;2022-12-18T07:41:08;100243.00;;;6.52;71.21
58668;BME280;59852;43.086;25.634;2022-12-18T07:43:34;100237.75;;;6.53;71.04
58668;BME280;59852;43.086;25.634;2022-12-18T07:45:59;100242.28;;;6.47;72.18
58668;BME280;59852;43.086;25.634;2022-12-18T07:48:25;100241.66;;;6.39;70.80
58668;BME280;59852;43.086;25.634;2022-12-18T07:50:50;100241.03;;;6.60;70.99
58668;BME280;59852;43.086;25.634;2022-12-18T07:53:16;100241.16;;;6.55;69.13
58668;BME280;59852;43.086;25.634;2022-12-18T07:55:41;100238.59;;;6.54;68.21
58668;BME280;59852;43.086;25.634;2022-12-18T07:58:07;100246.41;;;6.54;68.38
58668;BME280;59852;43.086;25.634;2022-12-18T08:00:33;100254.38;;;6.48;67.79
58668;BME280;59852;43.086;25.634;2022-12-18T08:02:58;100256.81;;;6.54;68.13
58668;BME280;59852;43.086;25.634;2022-12-18T08:05:24;100246.31;;;6.57;67.95
58668;BME280;59852;43.086;25.634;2022-12-18T08:07:49;100255.63;;;6.64;68.24
58668;BME280;59852;43.086;25.634;2022-12-18T08:10:15;100263.34;;;6.38;68.61
58668;BME280;59852;43.086;25.634;2022-12-18T08:12:40;100260.34;;;6.51;68.28
58668;BME280;59852;43.086;25.634;2022-12-18T08:15:06;100252.06;;;6.67;68.81
58668;BME280;59852;43.086;25.634;2022-12-18T08:17:31;100254.63;;;6.68;68.96
58668;BME280;59852;43.086;25.634;2022-12-18T08:19:56;100257.88;;;6.75;68.95
58668;BME280;59852;43.086;25.634;2022-12-18T08:22:22;100254.38;;;6.76;69.57
58668;BME280;59852;43.086;25.634;2022-12-18T08:24:47;100258.72;;;6.75;68.79
58668;BME280;59852;43.086;25.634;2022-12-18T08:27:12;100262.06;;;6.52;69.67
58668;BME280;59852;43.086;25.634;2022-12-18T08:29:38;100256.69;;;6.57;70.33
58668;BME280;59852;43.086;25.634;2022-12-18T08:32:03;100257.44;;;6.32;69.97
58668;BME280;59852;43.086;25.634;2022-12-18T08:34:29;100263.56;;;6.59;69.23
58668;BME280;59852;43.086;25.634;2022-12-18T08:36:54;100265.44;;;6.54;69.57
58668;BME280;59852;43.086;25.634;2022-12-18T08:39:19;100271.97;;;6.40;69.73
58668;BME280;59852;43.086;25.634;2022-12-18T08:41:45;100256.47;;;6.65;69.13
58668;BME280;59852;43.086;25.634;2022-12-18T08:44:30;100263.41;;;6.64;68.13
58668;BME280;59852;43.086;25.634;2022-12-18T08:47:05;100263.66;;;6.56;67.77
58668;BME280;59852;43.086;25.634;2022-12-18T08:49:30;100258.81;;;6.44;67.89
58668;BME280;59852;43.086;25.634;2022-12-18T08:51:56;100255.22;;;6.48;66.71
58668;BME280;59852;43.086;25.634;2022-12-18T08:54:24;100256.75;;;6.55;67.05
58668;BME280;59852;43.086;25.634;2022-12-18T08:56:50;100258.16;;;6.66;66.52
58668;BME280;59852;43.086;25.634;2022-12-18T08:59:19;100255.91;;;6.55;67.05
58668;BME280;59852;43.086;25.634;2022-12-18T09:01:45;100255.56;;;6.66;67.52
58668;BME280;59852;43.086;25.634;2022-12-18T09:04:10;100254.59;;;6.42;66.64
58668;BME280;59852;43.086;25.634;2022-12-18T09:06:36;100251.38;;;6.61;67.08
58668;BME280;59852;43.086;25.634;2022-12-18T09:09:01;100251.09;;;6.71;66.76
58668;BME280;59852;43.086;25.634;2022-12-18T09:11:27;100251.88;;;6.73;66.48
58668;BME280;59852;43.086;25.634;2022-12-18T09:13:53;100254.63;;;6.40;67.21
58668;BME280;59852;43.086;25.634;2022-12-18T09:16:19;100246.13;;;6.63;66.65
58668;BME280;59852;43.086;25.634;2022-12-18T09:18:44;100251.88;;;6.45;66.32
58668;BME280;59852;43.086;25.634;2022-12-18T09:21:17;100245.94;;;6.41;65.77
58668;BME280;59852;43.086;25.634;2022-12-18T09:23:43;100249.56;;;6.64;65.14
58668;BME280;59852;43.086;25.634;2022-12-18T09:26:08;100252.72;;;6.45;63.11
58668;BME280;59852;43.086;25.634;2022-12-18T09:28:34;100241.31;;;6.77;63.92
58668;BME280;59852;43.086;25.634;2022-12-18T09:31:03;100243.53;;;6.63;63.87
58668;BME280;59852;43.086;25.634;2022-12-18T09:33:28;100250.94;;;6.75;64.39
58668;BME280;59852;43.086;25.634;2022-12-18T09:35:54;100251.53;;;6.83;62.24
58668;BME280;59852;43.086;25.634;2022-12-18T09:38:20;100252.59;;;6.50;63.64
58668;BME280;59852;43.086;25.634;2022-12-18T09:40:49;100255.50;;;6.69;62.40
58668;BME280;59852;43.086;25.634;2022-12-18T09:43:49;100253.03;;;6.64;63.11
58668;BME280;59852;43.086;25.634;2022-12-18T09:46:09;100249.16;;;6.49;64.33
58668;BME280;59852;43.086;25.634;2022-12-18T09:48:37;100256.81;;;6.54;63.94
58668;BME280;59852;43.086;25.634;2022-12-18T09:53:51;100254.66;;;6.67;63.02
58668;BME280;59852;43.086;25.634;2022-12-18T09:56:19;100258.88;;;6.71;62.89
58668;BME280;59852;43.086;25.634;2022-12-18T10:01:14;100264.66;;;6.80;62.12
58668;BME280;59852;43.086;25.634;2022-12-18T10:03:41;100268.31;;;6.45;63.06
58668;BME280;59852;43.086;25.634;2022-12-18T10:06:14;100255.03;;;6.26;63.75
58668;BME280;59852;43.086;25.634;2022-12-18T10:08:51;100260.72;;;6.39;62.30
58668;BME280;59852;43.086;25.634;2022-12-18T10:19:41;100263.09;;;6.75;61.07
58668;BME280;59852;43.086;25.634;2022-12-18T10:22:30;100266.28;;;6.83;60.55
58668;BME280;59852;43.086;25.634;2022-12-18T10:25:05;100265.56;;;6.78;62.29
58668;BME280;59852;43.086;25.634;2022-12-18T10:27:38;100259.34;;;6.55;61.72
58668;BME280;59852;43.086;25.634;2022-12-18T10:30:07;100256.84;;;6.80;60.53
58668;BME280;59852;43.086;25.634;2022-12-18T10:32:37;100241.72;;;6.65;61.38
58668;BME280;59852;43.086;25.634;2022-12-18T10:35:02;100259.16;;;6.89;61.37
58668;BME280;59852;43.086;25.634;2022-12-18T10:37:28;100251.56;;;7.10;60.69
58668;BME280;59852;43.086;25.634;2022-12-18T10:40:08;100254.09;;;6.85;61.30
58668;BME280;59852;43.086;25.634;2022-12-18T10:42:34;100252.56;;;6.78;59.81
58668;BME280;59852;43.086;25.634;2022-12-18T10:45:09;100254.31;;;6.79;61.31
58668;BME280;59852;43.086;25.634;2022-12-18T10:47:35;100253.56;;;7.02;61.35
58668;BME280;59852;43.086;25.634;2022-12-18T10:50:01;100262.81;;;7.10;60.38
58668;BME280;59852;43.086;25.634;2022-12-18T10:52:27;100266.97;;;6.88;61.62
58668;BME280;59852;43.086;25.634;2022-12-18T10:57:29;100252.47;;;7.07;60.49
58668;BME280;59852;43.086;25.634;2022-12-18T10:59:56;100264.25;;;6.65;61.81
58668;BME280;59852;43.086;25.634;2022-12-18T11:02:26;100254.94;;;7.12;60.13
58668;BME280;59852;43.086;25.634;2022-12-18T11:04:52;100260.28;;;7.07;60.92
58668;BME280;59852;43.086;25.634;2022-12-18T11:07:18;100268.38;;;7.00;61.85
58668;BME280;59852;43.086;25.634;2022-12-18T11:09:43;100264.63;;;7.08;61.50
58668;BME280;59852;43.086;25.634;2022-12-18T11:14:47;100264.75;;;7.30;60.89
58668;BME280;59852;43.086;25.634;2022-12-18T11:17:20;100265.25;;;7.41;59.59
58668;BME280;59852;43.086;25.634;2022-12-18T11:19:52;100266.13;;;7.40;59.99
58668;BME280;59852;43.086;25.634;2022-12-18T11:22:22;100267.66;;;7.21;60.38
58668;BME280;59852;43.086;25.634;2022-12-18T11:24:58;100272.25;;;7.39;59.87
58668;BME280;59852;43.086;25.634;2022-12-18T11:27:24;100267.59;;;7.49;58.93
58668;BME280;59852;43.086;25.634;2022-12-18T11:29:50;100275.25;;;7.27;60.59
58668;BME280;59852;43.086;25.634;2022-12-18T11:32:49;100278.00;;;7.49;59.81
58668;BME280;59852;43.086;25.634;2022-12-18T11:35:19;100275.22;;;7.29;59.78
58668;BME280;59852;43.086;25.634;2022-12-18T11:37:55;100262.94;;;7.32;59.73
58668;BME280;59852;43.086;25.634;2022-12-18T11:40:42;100277.19;;;6.94;60.60
58668;BME280;59852;43.086;25.634;2022-12-18T11:43:20;100271.94;;;6.96;59.83
58668;BME280;59852;43.086;25.634;2022-12-18T11:45:53;100278.72;;;7.28;59.00
58668;BME280;59852;43.086;25.634;2022-12-18T11:48:24;100274.81;;;7.14;59.54
58668;BME280;59852;43.086;25.634;2022-12-18T11:50:52;100269.72;;;7.11;60.11
58668;BME280;59852;43.086;25.634;2022-12-18T11:53:19;100275.88;;;7.09;59.19
58668;BME280;59852;43.086;25.634;2022-12-18T12:01:15;100281.00;;;6.84;59.96
58668;BME280;59852;43.086;25.634;2022-12-18T12:06:26;100280.91;;;6.59;60.42
58668;BME280;59852;43.086;25.634;2022-12-18T12:14:13;100291.91;;;6.67;59.81
58668;BME280;59852;43.086;25.634;2022-12-18T12:19:10;100287.72;;;6.33;59.75
58668;BME280;59852;43.086;25.634;2022-12-18T12:21:42;100289.56;;;6.59;58.62
58668;BME280;59852;43.086;25.634;2022-12-18T12:32:04;100297.84;;;6.72;59.81
58668;BME280;59852;43.086;25.634;2022-12-18T12:34:43;100290.34;;;6.33;61.33
58668;BME280;59852;43.086;25.634;2022-12-18T12:37:15;100290.84;;;6.15;61.09
58668;BME280;59852;43.086;25.634;2022-12-18T12:39:44;100287.78;;;6.32;60.31
58668;BME280;59852;43.086;25.634;2022-12-18T12:45:33;100288.47;;;6.37;61.01
58668;BME280;59852;43.086;25.634;2022-12-18T12:47:59;100289.69;;;6.25;59.98
58668;BME280;59852;43.086;25.634;2022-12-18T12:50:27;100307.25;;;6.17;59.12
58668;BME280;59852;43.086;25.634;2022-12-18T12:52:53;100312.13;;;6.28;59.82
58668;BME280;59852;43.086;25.634;2022-12-18T12:55:23;100310.28;;;6.33;60.31
58668;BME280;59852;43.086;25.634;2022-12-18T13:01:09;100321.22;;;6.13;60.12
58668;BME280;59852;43.086;25.634;2022-12-18T13:03:43;100325.88;;;6.02;59.81
58668;BME280;59852;43.086;25.634;2022-12-18T13:06:27;100330.19;;;6.03;60.39
58668;BME280;59852;43.086;25.634;2022-12-18T13:09:01;100339.50;;;6.10;60.48
58668;BME280;59852;43.086;25.634;2022-12-18T13:14:20;100347.66;;;6.27;59.98
58668;BME280;59852;43.086;25.634;2022-12-18T13:16:46;100345.38;;;6.17;59.19
58668;BME280;59852;43.086;25.634;2022-12-18T13:19:19;100353.38;;;6.09;59.53
58668;BME280;59852;43.086;25.634;2022-12-18T13:21:51;100346.69;;;6.00;60.13
58668;BME280;59852;43.086;25.634;2022-12-18T13:24:23;100346.44;;;6.10;60.06
58668;BME280;59852;43.086;25.634;2022-12-18T13:26:49;100349.34;;;5.97;60.82
58668;BME280;59852;43.086;25.634;2022-12-18T13:29:39;100356.16;;;6.03;61.30
58668;BME280;59852;43.086;25.634;2022-12-18T13:32:00;100366.69;;;5.97;60.75
58668;BME280;59852;43.086;25.634;2022-12-18T13:34:26;100363.00;;;6.06;61.24
58668;BME280;59852;43.086;25.634;2022-12-18T13:36:53;100371.88;;;5.97;61.51
58668;BME280;59852;43.086;25.634;2022-12-18T13:41:47;100380.72;;;5.88;61.34
58668;BME280;59852;43.086;25.634;2022-12-18T13:44:32;100371.06;;;5.95;61.02
58668;BME280;59852;43.086;25.634;2022-12-18T13:46:59;100375.50;;;5.91;62.00
58668;BME280;59852;43.086;25.634;2022-12-18T13:51:56;100382.94;;;5.69;61.67
58668;BME280;59852;43.086;25.634;2022-12-18T13:56:53;100393.84;;;5.84;61.73
58668;BME280;59852;43.086;25.634;2022-12-18T13:59:52;100381.66;;;5.86;62.19
58668;BME280;59852;43.086;25.634;2022-12-18T14:02:17;100380.81;;;5.85;61.89
58668;BME280;59852;43.086;25.634;2022-12-18T14:04:46;100384.28;;;5.86;62.28
58668;BME280;59852;43.086;25.634;2022-12-18T14:07:12;100392.09;;;5.84;61.88
58668;BME280;59852;43.086;25.634;2022-12-18T14:09:43;100398.56;;;5.68;61.81
58668;BME280;59852;43.086;25.634;2022-12-18T14:12:16;100393.94;;;5.81;62.20